AAL1701 KCMH-KPHL
Flight info
| Callsign | AAL1701 |
|---|---|
| Flight time | 1h 7m |
| Altitude | 37000 |
| Route | OWEBO HLG JST BOJID4 |
| Aircraft | A319/M-SDE3FGHIRWY/LB1 |
Departure
| Time | 2026-05-06 00:50 |
|---|---|
| Airport | John Glenn Columbus International Airport (KCMH) |
Arrival
| Time | 2026-05-06 01:57 |
|---|---|
| Airport | Philadelphia International Airport (KPHL) |
| Time | Latitude | Longitude | Altitude | Speed | Heading |
|---|---|---|---|---|---|
| 2026-05-06 00:35 | 39.99646 | -82.88437 | 813 ft | 0 kts | 35° |
| 2026-05-06 00:42 | 39.99636 | -82.88445 | 813 ft | 2 kts | 35° |
| 2026-05-06 00:43 | 39.99624 | -82.88457 | 813 ft | 2 kts | 36° |
| 2026-05-06 00:43 | 39.99612 | -82.88467 | 813 ft | 2 kts | 35° |
| 2026-05-06 00:43 | 39.99600 | -82.88479 | 813 ft | 2 kts | 35° |
| 2026-05-06 00:43 | 39.99588 | -82.88490 | 813 ft | 1 kts | 35° |
| 2026-05-06 00:44 | 39.99587 | -82.88491 | 813 ft | 0 kts | 36° |
| 2026-05-06 00:45 | 39.99589 | -82.88489 | 813 ft | 0 kts | 40° |
| 2026-05-06 00:46 | 39.99588 | -82.88455 | 813 ft | 6 kts | 96° |
| 2026-05-06 00:46 | 39.99584 | -82.88390 | 813 ft | 7 kts | 94° |
| 2026-05-06 00:46 | 39.99601 | -82.88291 | 813 ft | 17 kts | 67° |
| 2026-05-06 00:46 | 39.99608 | -82.88129 | 813 ft | 17 kts | 92° |
| 2026-05-06 00:47 | 39.99599 | -82.87974 | 813 ft | 17 kts | 92° |
| 2026-05-06 00:47 | 39.99670 | -82.87910 | 813 ft | 12 kts | 1° |
| 2026-05-06 00:47 | 39.99757 | -82.87902 | 813 ft | 12 kts | 5° |
| 2026-05-06 00:47 | 39.99850 | -82.87893 | 812 ft | 14 kts | 4° |
| 2026-05-06 00:48 | 39.99945 | -82.87916 | 806 ft | 14 kts | 318° |
| 2026-05-06 00:48 | 40.00013 | -82.87946 | 802 ft | 11 kts | 8° |
| 2026-05-06 00:48 | 40.00070 | -82.87940 | 801 ft | 2 kts | 4° |
| 2026-05-06 00:48 | 40.00071 | -82.87940 | 801 ft | 0 kts | 4° |
| 2026-05-06 00:49 | 40.00086 | -82.87938 | 801 ft | 10 kts | 3° |
| 2026-05-06 00:49 | 40.00160 | -82.87950 | 800 ft | 9 kts | 302° |
| 2026-05-06 00:49 | 40.00167 | -82.88034 | 801 ft | 12 kts | 272° |
| 2026-05-06 00:50 | 40.00192 | -82.88489 | 810 ft | 87 kts | 274° |
| 2026-05-06 00:50 | 40.00256 | -82.89583 | 824 ft | 150 kts | 273° |
| 2026-05-06 00:50 | 40.00339 | -82.90989 | 1318 ft | 161 kts | 271° |
| 2026-05-06 00:50 | 40.00437 | -82.92414 | 2162 ft | 157 kts | 271° |
| 2026-05-06 00:51 | 40.00581 | -82.93773 | 2942 ft | 156 kts | 271° |
| 2026-05-06 00:51 | 40.00765 | -82.95217 | 3443 ft | 169 kts | 272° |
| 2026-05-06 00:51 | 40.01009 | -82.96773 | 3892 ft | 189 kts | 282° |
| 2026-05-06 00:51 | 40.01856 | -82.98247 | 4325 ft | 225 kts | 319° |
| 2026-05-06 00:52 | 40.03414 | -82.99010 | 4848 ft | 258 kts | 350° |
| 2026-05-06 00:52 | 40.05260 | -82.98682 | 5398 ft | 285 kts | 20° |
| 2026-05-06 00:52 | 40.06910 | -82.97183 | 5964 ft | 303 kts | 52° |
| 2026-05-06 00:52 | 40.07774 | -82.94699 | 6737 ft | 304 kts | 85° |
| 2026-05-06 00:53 | 40.07899 | -82.91991 | 7630 ft | 304 kts | 95° |
| 2026-05-06 00:53 | 40.07846 | -82.89253 | 8506 ft | 309 kts | 97° |
| 2026-05-06 00:53 | 40.07774 | -82.86410 | 9341 ft | 316 kts | 96° |
| 2026-05-06 00:53 | 40.07725 | -82.83568 | 10152 ft | 322 kts | 95° |
| 2026-05-06 00:54 | 40.07700 | -82.80608 | 10790 ft | 335 kts | 94° |
| 2026-05-06 00:54 | 40.07694 | -82.77536 | 11443 ft | 345 kts | 93° |
| 2026-05-06 00:54 | 40.07702 | -82.74368 | 12220 ft | 351 kts | 92° |
| 2026-05-06 00:54 | 40.07714 | -82.71205 | 12962 ft | 356 kts | 92° |
| 2026-05-06 00:55 | 40.07726 | -82.67937 | 13666 ft | 362 kts | 92° |
| 2026-05-06 00:55 | 40.07740 | -82.64654 | 14346 ft | 368 kts | 91° |
| 2026-05-06 00:55 | 40.07755 | -82.61317 | 15044 ft | 373 kts | 91° |
| 2026-05-06 00:55 | 40.07767 | -82.57896 | 15745 ft | 378 kts | 91° |
| 2026-05-06 00:56 | 40.07779 | -82.54504 | 16480 ft | 380 kts | 91° |
| 2026-05-06 00:56 | 40.07789 | -82.51049 | 17177 ft | 384 kts | 91° |
| 2026-05-06 00:56 | 40.07798 | -82.47548 | 17817 ft | 388 kts | 91° |
| 2026-05-06 00:56 | 40.07805 | -82.44003 | 18440 ft | 394 kts | 90° |
| 2026-05-06 00:57 | 40.07811 | -82.40426 | 19073 ft | 398 kts | 90° |
| 2026-05-06 00:57 | 40.07820 | -82.36820 | 19737 ft | 401 kts | 90° |
| 2026-05-06 00:57 | 40.07829 | -82.33172 | 20396 ft | 404 kts | 91° |
| 2026-05-06 00:57 | 40.07832 | -82.29525 | 21050 ft | 406 kts | 91° |
| 2026-05-06 00:58 | 40.07835 | -82.25854 | 21648 ft | 409 kts | 91° |
| 2026-05-06 00:58 | 40.07835 | -82.22160 | 22235 ft | 411 kts | 91° |
| 2026-05-06 00:58 | 40.07835 | -82.18398 | 22853 ft | 413 kts | 92° |
| 2026-05-06 00:58 | 40.07832 | -82.14659 | 23406 ft | 416 kts | 91° |
| 2026-05-06 00:59 | 40.07827 | -82.10886 | 23968 ft | 419 kts | 91° |
| 2026-05-06 00:59 | 40.07822 | -82.07101 | 24498 ft | 423 kts | 91° |
| 2026-05-06 00:59 | 40.07819 | -82.03267 | 25012 ft | 426 kts | 91° |
| 2026-05-06 00:59 | 40.07812 | -81.99400 | 25520 ft | 430 kts | 91° |
| 2026-05-06 01:00 | 40.07806 | -81.95483 | 26033 ft | 433 kts | 91° |
| 2026-05-06 01:00 | 40.07797 | -81.91518 | 26519 ft | 437 kts | 90° |
| 2026-05-06 01:00 | 40.07784 | -81.87579 | 26968 ft | 442 kts | 90° |
| 2026-05-06 01:00 | 40.07772 | -81.83540 | 27427 ft | 445 kts | 90° |
| 2026-05-06 01:01 | 40.07760 | -81.79485 | 27915 ft | 448 kts | 90° |
| 2026-05-06 01:01 | 40.07760 | -81.75449 | 28350 ft | 452 kts | 89° |
| 2026-05-06 01:01 | 40.07927 | -81.71349 | 28824 ft | 454 kts | 84° |
| 2026-05-06 01:01 | 40.08326 | -81.67293 | 29314 ft | 455 kts | 79° |
| 2026-05-06 01:02 | 40.08934 | -81.63248 | 29757 ft | 457 kts | 76° |
| 2026-05-06 01:02 | 40.09622 | -81.59159 | 30138 ft | 460 kts | 75° |
| 2026-05-06 01:02 | 40.10313 | -81.55089 | 30467 ft | 464 kts | 75° |
| 2026-05-06 01:02 | 40.11005 | -81.50974 | 30790 ft | 468 kts | 74° |
| 2026-05-06 01:03 | 40.11686 | -81.46836 | 31132 ft | 472 kts | 74° |
| 2026-05-06 01:03 | 40.12374 | -81.42634 | 31447 ft | 476 kts | 73° |
| 2026-05-06 01:03 | 40.13068 | -81.38384 | 31763 ft | 480 kts | 73° |
| 2026-05-06 01:03 | 40.13771 | -81.34072 | 32093 ft | 483 kts | 74° |
| 2026-05-06 01:04 | 40.14461 | -81.29812 | 32392 ft | 486 kts | 73° |
| 2026-05-06 01:04 | 40.15165 | -81.25460 | 32756 ft | 487 kts | 73° |
| 2026-05-06 01:04 | 40.15850 | -81.21186 | 33142 ft | 487 kts | 73° |
| 2026-05-06 01:04 | 40.16548 | -81.16836 | 33538 ft | 488 kts | 72° |
| 2026-05-06 01:05 | 40.17242 | -81.12498 | 33925 ft | 488 kts | 72° |
| 2026-05-06 01:05 | 40.17929 | -81.08192 | 34299 ft | 489 kts | 72° |
| 2026-05-06 01:05 | 40.18622 | -81.03847 | 34698 ft | 489 kts | 71° |
| 2026-05-06 01:05 | 40.19314 | -80.99498 | 35166 ft | 488 kts | 71° |
| 2026-05-06 01:06 | 40.19996 | -80.95198 | 35587 ft | 487 kts | 71° |
| 2026-05-06 01:06 | 40.20683 | -80.90862 | 35909 ft | 488 kts | 71° |
| 2026-05-06 01:06 | 40.21367 | -80.86546 | 36159 ft | 491 kts | 71° |
| 2026-05-06 01:06 | 40.22062 | -80.82153 | 36444 ft | 493 kts | 72° |
| 2026-05-06 01:07 | 40.22747 | -80.77778 | 36728 ft | 495 kts | 71° |
| 2026-05-06 01:07 | 40.23428 | -80.73385 | 36840 ft | 496 kts | 71° |
| 2026-05-06 01:07 | 40.24114 | -80.68978 | 36852 ft | 497 kts | 71° |
| 2026-05-06 01:08 | 40.25480 | -80.60120 | 36851 ft | 496 kts | 73° |
| 2026-05-06 01:08 | 40.26288 | -80.51172 | 36858 ft | 501 kts | 81° |
| 2026-05-06 01:09 | 40.26628 | -80.42051 | 36857 ft | 501 kts | 82° |
| 2026-05-06 01:09 | 40.26945 | -80.33011 | 36866 ft | 500 kts | 82° |
| 2026-05-06 01:10 | 40.27280 | -80.23962 | 36871 ft | 500 kts | 82° |
| 2026-05-06 01:10 | 40.27614 | -80.14858 | 36869 ft | 500 kts | 82° |
| 2026-05-06 01:11 | 40.27940 | -80.05825 | 36864 ft | 498 kts | 82° |
| 2026-05-06 01:11 | 40.28258 | -79.96787 | 36855 ft | 498 kts | 82° |
| 2026-05-06 01:12 | 40.28575 | -79.87751 | 36868 ft | 499 kts | 82° |
| 2026-05-06 01:12 | 40.28875 | -79.78723 | 36865 ft | 497 kts | 82° |
| 2026-05-06 01:13 | 40.29176 | -79.69772 | 36862 ft | 496 kts | 83° |
| 2026-05-06 01:13 | 40.29464 | -79.60750 | 36863 ft | 495 kts | 82° |
| 2026-05-06 01:14 | 40.29887 | -79.47313 | 36864 ft | 495 kts | 83° |
| 2026-05-06 01:14 | 40.30160 | -79.38335 | 36877 ft | 494 kts | 82° |
| 2026-05-06 01:15 | 40.30427 | -79.29396 | 36882 ft | 493 kts | 84° |
| 2026-05-06 01:15 | 40.30683 | -79.20400 | 36876 ft | 493 kts | 83° |
| 2026-05-06 01:16 | 40.30933 | -79.11463 | 36889 ft | 493 kts | 83° |
| 2026-05-06 01:16 | 40.31174 | -79.02581 | 36892 ft | 491 kts | 84° |
| 2026-05-06 01:17 | 40.31407 | -78.93695 | 36764 ft | 485 kts | 83° |
| 2026-05-06 01:17 | 40.31522 | -78.89300 | 36214 ft | 485 kts | 83° |
| 2026-05-06 01:17 | 40.31641 | -78.84895 | 35555 ft | 487 kts | 84° |
| 2026-05-06 01:18 | 40.31726 | -78.80460 | 34871 ft | 489 kts | 86° |
| 2026-05-06 01:18 | 40.31729 | -78.76032 | 34289 ft | 489 kts | 88° |
| 2026-05-06 01:18 | 40.31706 | -78.71589 | 33692 ft | 487 kts | 88° |
| 2026-05-06 01:18 | 40.31681 | -78.67208 | 33209 ft | 483 kts | 88° |
| 2026-05-06 01:19 | 40.31659 | -78.62876 | 32816 ft | 476 kts | 89° |
| 2026-05-06 01:19 | 40.31642 | -78.58540 | 32369 ft | 472 kts | 88° |
| 2026-05-06 01:19 | 40.31628 | -78.54292 | 31896 ft | 467 kts | 89° |
| 2026-05-06 01:19 | 40.31611 | -78.50061 | 31413 ft | 463 kts | 89° |
| 2026-05-06 01:20 | 40.31596 | -78.45869 | 30926 ft | 460 kts | 89° |
| 2026-05-06 01:20 | 40.31579 | -78.41724 | 30480 ft | 455 kts | 89° |
| 2026-05-06 01:20 | 40.31561 | -78.37617 | 30027 ft | 451 kts | 90° |
| 2026-05-06 01:20 | 40.31543 | -78.33546 | 29498 ft | 450 kts | 90° |
| 2026-05-06 01:21 | 40.31525 | -78.29401 | 28616 ft | 456 kts | 91° |
| 2026-05-06 01:21 | 40.31505 | -78.25278 | 27897 ft | 458 kts | 91° |
| 2026-05-06 01:21 | 40.31479 | -78.21145 | 27385 ft | 454 kts | 92° |
| 2026-05-06 01:21 | 40.31456 | -78.17052 | 26915 ft | 449 kts | 92° |
| 2026-05-06 01:22 | 40.31427 | -78.12994 | 26471 ft | 443 kts | 92° |
| 2026-05-06 01:22 | 40.31398 | -78.09016 | 26042 ft | 438 kts | 92° |
| 2026-05-06 01:22 | 40.31368 | -78.05080 | 25614 ft | 432 kts | 92° |
| 2026-05-06 01:22 | 40.31337 | -78.01146 | 25217 ft | 426 kts | 93° |
| 2026-05-06 01:23 | 40.31307 | -77.97349 | 24919 ft | 417 kts | 93° |
| 2026-05-06 01:23 | 40.31279 | -77.93592 | 24881 ft | 405 kts | 93° |
| 2026-05-06 01:23 | 40.31247 | -77.89899 | 24879 ft | 405 kts | 93° |
| 2026-05-06 01:23 | 40.31215 | -77.86278 | 24879 ft | 404 kts | 93° |
| 2026-05-06 01:24 | 40.31180 | -77.82572 | 24877 ft | 403 kts | 93° |
| 2026-05-06 01:24 | 40.31144 | -77.78906 | 24876 ft | 405 kts | 93° |
| 2026-05-06 01:24 | 40.31110 | -77.75258 | 24871 ft | 404 kts | 93° |
| 2026-05-06 01:24 | 40.31072 | -77.71590 | 24815 ft | 399 kts | 93° |
| 2026-05-06 01:25 | 40.31035 | -77.67994 | 24408 ft | 397 kts | 93° |
| 2026-05-06 01:25 | 40.30998 | -77.64394 | 23917 ft | 395 kts | 94° |
| 2026-05-06 01:25 | 40.30958 | -77.60815 | 23454 ft | 393 kts | 94° |
| 2026-05-06 01:25 | 40.30916 | -77.57256 | 23051 ft | 390 kts | 94° |
| 2026-05-06 01:26 | 40.30874 | -77.53771 | 22648 ft | 387 kts | 94° |
| 2026-05-06 01:26 | 40.30830 | -77.50272 | 22242 ft | 384 kts | 94° |
| 2026-05-06 01:26 | 40.30786 | -77.46767 | 21832 ft | 382 kts | 94° |
| 2026-05-06 01:26 | 40.30745 | -77.43333 | 21438 ft | 380 kts | 94° |
| 2026-05-06 01:27 | 40.30702 | -77.39870 | 21042 ft | 377 kts | 94° |
| 2026-05-06 01:27 | 40.30660 | -77.36497 | 20646 ft | 375 kts | 94° |
| 2026-05-06 01:27 | 40.30613 | -77.33088 | 20284 ft | 372 kts | 95° |
| 2026-05-06 01:27 | 40.30567 | -77.29732 | 19905 ft | 370 kts | 95° |
| 2026-05-06 01:28 | 40.30519 | -77.26374 | 19531 ft | 368 kts | 95° |
| 2026-05-06 01:28 | 40.30471 | -77.23048 | 19158 ft | 365 kts | 95° |
| 2026-05-06 01:28 | 40.30420 | -77.19730 | 18853 ft | 362 kts | 95° |
| 2026-05-06 01:28 | 40.30369 | -77.16425 | 18832 ft | 365 kts | 95° |
| 2026-05-06 01:29 | 40.30318 | -77.13129 | 18833 ft | 365 kts | 95° |
| 2026-05-06 01:29 | 40.30244 | -77.09789 | 18854 ft | 365 kts | 98° |
| 2026-05-06 01:29 | 40.29966 | -77.06525 | 18841 ft | 361 kts | 104° |
| 2026-05-06 01:29 | 40.29433 | -77.03344 | 18852 ft | 357 kts | 111° |
| 2026-05-06 01:30 | 40.28729 | -77.00223 | 18769 ft | 356 kts | 112° |
| 2026-05-06 01:30 | 40.27999 | -76.97138 | 18518 ft | 354 kts | 112° |
| 2026-05-06 01:30 | 40.27276 | -76.94084 | 18265 ft | 352 kts | 113° |
| 2026-05-06 01:30 | 40.26555 | -76.91026 | 18014 ft | 351 kts | 112° |
| 2026-05-06 01:31 | 40.25835 | -76.87956 | 17763 ft | 350 kts | 113° |
| 2026-05-06 01:31 | 40.25132 | -76.84945 | 17516 ft | 348 kts | 112° |
| 2026-05-06 01:31 | 40.24424 | -76.81921 | 17266 ft | 347 kts | 112° |
| 2026-05-06 01:31 | 40.23728 | -76.78935 | 17017 ft | 346 kts | 112° |
| 2026-05-06 01:32 | 40.23020 | -76.75911 | 16767 ft | 345 kts | 112° |
| 2026-05-06 01:32 | 40.22323 | -76.72930 | 16517 ft | 344 kts | 112° |
| 2026-05-06 01:32 | 40.21629 | -76.69958 | 16269 ft | 344 kts | 111° |
| 2026-05-06 01:32 | 40.20930 | -76.66975 | 16022 ft | 342 kts | 111° |
| 2026-05-06 01:33 | 40.20238 | -76.64021 | 15774 ft | 340 kts | 111° |
| 2026-05-06 01:33 | 40.19544 | -76.61060 | 15526 ft | 340 kts | 111° |
| 2026-05-06 01:33 | 40.18858 | -76.58138 | 15285 ft | 339 kts | 111° |
| 2026-05-06 01:33 | 40.18169 | -76.55212 | 15037 ft | 338 kts | 111° |
| 2026-05-06 01:34 | 40.17475 | -76.52270 | 14793 ft | 336 kts | 111° |
| 2026-05-06 01:34 | 40.16786 | -76.49352 | 14546 ft | 336 kts | 111° |
| 2026-05-06 01:34 | 40.16102 | -76.46451 | 14300 ft | 335 kts | 111° |
| 2026-05-06 01:34 | 40.15416 | -76.43555 | 14068 ft | 334 kts | 111° |
| 2026-05-06 01:35 | 40.14731 | -76.40669 | 13822 ft | 333 kts | 111° |
| 2026-05-06 01:35 | 40.14051 | -76.37799 | 13577 ft | 332 kts | 110° |
| 2026-05-06 01:35 | 40.13365 | -76.34914 | 13341 ft | 331 kts | 111° |
| 2026-05-06 01:35 | 40.12685 | -76.32046 | 13095 ft | 328 kts | 111° |
| 2026-05-06 01:36 | 40.12123 | -76.29208 | 12860 ft | 328 kts | 105° |
| 2026-05-06 01:36 | 40.11773 | -76.26258 | 12625 ft | 329 kts | 99° |
| 2026-05-06 01:36 | 40.11558 | -76.23277 | 12383 ft | 328 kts | 97° |
| 2026-05-06 01:36 | 40.11372 | -76.20328 | 12142 ft | 327 kts | 97° |
| 2026-05-06 01:37 | 40.11185 | -76.17396 | 11907 ft | 327 kts | 97° |
| 2026-05-06 01:37 | 40.10993 | -76.14450 | 11660 ft | 325 kts | 97° |
| 2026-05-06 01:37 | 40.10797 | -76.11511 | 11421 ft | 324 kts | 97° |
| 2026-05-06 01:37 | 40.10597 | -76.08590 | 11171 ft | 322 kts | 97° |
| 2026-05-06 01:38 | 40.10400 | -76.05731 | 10998 ft | 319 kts | 97° |
| 2026-05-06 01:38 | 40.10199 | -76.02845 | 10985 ft | 319 kts | 98° |
| 2026-05-06 01:38 | 40.09995 | -75.99939 | 10982 ft | 320 kts | 97° |
| 2026-05-06 01:38 | 40.09794 | -75.97077 | 10983 ft | 319 kts | 98° |
| 2026-05-06 01:39 | 40.09594 | -75.94200 | 10982 ft | 320 kts | 97° |
| 2026-05-06 01:39 | 40.09391 | -75.91316 | 10985 ft | 320 kts | 97° |
| 2026-05-06 01:39 | 40.09187 | -75.88407 | 10987 ft | 319 kts | 97° |
| 2026-05-06 01:39 | 40.08982 | -75.85539 | 10984 ft | 319 kts | 97° |
| 2026-05-06 01:40 | 40.08778 | -75.82671 | 10986 ft | 319 kts | 97° |
| 2026-05-06 01:40 | 40.08574 | -75.79802 | 10982 ft | 320 kts | 97° |
| 2026-05-06 01:40 | 40.08369 | -75.76920 | 10982 ft | 320 kts | 97° |
| 2026-05-06 01:40 | 40.08167 | -75.74041 | 10919 ft | 316 kts | 96° |
| 2026-05-06 01:41 | 40.08020 | -75.71190 | 10552 ft | 317 kts | 95° |
| 2026-05-06 01:41 | 40.07774 | -75.65459 | 9865 ft | 314 kts | 95° |
| 2026-05-06 01:41 | 40.07647 | -75.62612 | 9548 ft | 312 kts | 95° |
| 2026-05-06 01:42 | 40.07520 | -75.59824 | 9220 ft | 311 kts | 95° |
| 2026-05-06 01:42 | 40.07391 | -75.57029 | 8883 ft | 309 kts | 95° |
| 2026-05-06 01:42 | 40.07259 | -75.54214 | 8543 ft | 309 kts | 96° |
| 2026-05-06 01:42 | 40.07127 | -75.51434 | 8190 ft | 308 kts | 96° |
| 2026-05-06 01:43 | 40.06993 | -75.48675 | 7992 ft | 306 kts | 96° |
| 2026-05-06 01:43 | 40.06855 | -75.45863 | 7945 ft | 307 kts | 96° |
| 2026-05-06 01:43 | 40.06718 | -75.43091 | 7927 ft | 308 kts | 96° |
| 2026-05-06 01:43 | 40.06583 | -75.40324 | 7919 ft | 308 kts | 96° |
| 2026-05-06 01:44 | 40.06443 | -75.37514 | 7915 ft | 307 kts | 96° |
| 2026-05-06 01:44 | 40.06307 | -75.34769 | 7912 ft | 307 kts | 97° |
| 2026-05-06 01:44 | 40.06165 | -75.31957 | 7907 ft | 307 kts | 97° |
| 2026-05-06 01:44 | 40.06023 | -75.29178 | 7911 ft | 308 kts | 97° |
| 2026-05-06 01:45 | 40.05882 | -75.26388 | 7909 ft | 308 kts | 97° |
| 2026-05-06 01:45 | 40.05720 | -75.23611 | 7866 ft | 308 kts | 101° |
| 2026-05-06 01:45 | 40.05013 | -75.21055 | 7410 ft | 300 kts | 131° |
| 2026-05-06 01:45 | 40.03450 | -75.19393 | 6973 ft | 283 kts | 165° |
| 2026-05-06 01:46 | 40.01622 | -75.18762 | 6644 ft | 275 kts | 174° |
| 2026-05-06 01:46 | 39.99765 | -75.18044 | 6287 ft | 282 kts | 159° |
| 2026-05-06 01:46 | 39.98335 | -75.16241 | 6026 ft | 296 kts | 124° |
| 2026-05-06 01:46 | 39.97863 | -75.13640 | 6002 ft | 306 kts | 90° |
| 2026-05-06 01:47 | 39.98333 | -75.10901 | 6010 ft | 310 kts | 74° |
| 2026-05-06 01:47 | 39.98985 | -75.08257 | 5928 ft | 306 kts | 77° |
| 2026-05-06 01:47 | 39.99464 | -75.05583 | 5744 ft | 298 kts | 81° |
| 2026-05-06 01:47 | 39.99848 | -75.03005 | 5601 ft | 290 kts | 83° |
| 2026-05-06 01:48 | 40.00209 | -75.00443 | 5455 ft | 282 kts | 83° |
| 2026-05-06 01:48 | 40.00568 | -74.97965 | 5313 ft | 275 kts | 83° |
| 2026-05-06 01:48 | 40.00925 | -74.95542 | 5173 ft | 268 kts | 83° |
| 2026-05-06 01:48 | 40.01276 | -74.93188 | 5001 ft | 265 kts | 83° |
| 2026-05-06 01:49 | 40.01634 | -74.90829 | 4739 ft | 265 kts | 83° |
| 2026-05-06 01:49 | 40.01878 | -74.88484 | 4462 ft | 260 kts | 101° |
| 2026-05-06 01:49 | 40.01285 | -74.86417 | 4174 ft | 236 kts | 141° |
| 2026-05-06 01:49 | 39.99987 | -74.85422 | 3903 ft | 208 kts | 180° |
| 2026-05-06 01:50 | 39.98603 | -74.85564 | 3649 ft | 196 kts | 202° |
| 2026-05-06 01:50 | 39.97420 | -74.86370 | 3385 ft | 192 kts | 221° |
| 2026-05-06 01:50 | 39.96524 | -74.87646 | 3128 ft | 192 kts | 234° |
| 2026-05-06 01:50 | 39.95822 | -74.89106 | 3018 ft | 186 kts | 237° |
| 2026-05-06 01:51 | 39.95197 | -74.90543 | 3007 ft | 175 kts | 237° |
| 2026-05-06 01:51 | 39.94638 | -74.91843 | 3065 ft | 156 kts | 236° |
| 2026-05-06 01:51 | 39.94055 | -74.92989 | 3026 ft | 151 kts | 233° |
| 2026-05-06 01:51 | 39.93469 | -74.94177 | 3028 ft | 159 kts | 237° |
| 2026-05-06 01:52 | 39.92991 | -74.95485 | 3020 ft | 163 kts | 244° |
| 2026-05-06 01:52 | 39.92617 | -74.96896 | 3017 ft | 165 kts | 248° |
| 2026-05-06 01:52 | 39.92319 | -74.98344 | 3013 ft | 165 kts | 250° |
| 2026-05-06 01:52 | 39.92032 | -74.99799 | 3011 ft | 165 kts | 250° |
| 2026-05-06 01:53 | 39.91748 | -75.01238 | 3013 ft | 164 kts | 250° |
| 2026-05-06 01:53 | 39.91463 | -75.02666 | 2955 ft | 165 kts | 250° |
| 2026-05-06 01:53 | 39.91172 | -75.04120 | 2751 ft | 165 kts | 249° |
| 2026-05-06 01:53 | 39.90882 | -75.05560 | 2540 ft | 167 kts | 249° |
| 2026-05-06 01:54 | 39.90585 | -75.07033 | 2322 ft | 168 kts | 249° |
| 2026-05-06 01:54 | 39.90293 | -75.08491 | 2108 ft | 168 kts | 248° |
| 2026-05-06 01:54 | 39.90000 | -75.09950 | 1890 ft | 168 kts | 248° |
| 2026-05-06 01:54 | 39.89717 | -75.11383 | 1682 ft | 153 kts | 246° |
| 2026-05-06 01:55 | 39.89464 | -75.12653 | 1490 ft | 139 kts | 247° |
| 2026-05-06 01:55 | 39.89230 | -75.13821 | 1301 ft | 129 kts | 245° |
| 2026-05-06 01:55 | 39.88997 | -75.14955 | 1135 ft | 128 kts | 248° |
| 2026-05-06 01:55 | 39.88773 | -75.16065 | 984 ft | 127 kts | 246° |
| 2026-05-06 01:56 | 39.88550 | -75.17172 | 816 ft | 127 kts | 249° |
| 2026-05-06 01:56 | 39.88327 | -75.18294 | 660 ft | 127 kts | 248° |
| 2026-05-06 01:56 | 39.88107 | -75.19398 | 493 ft | 126 kts | 246° |
| 2026-05-06 01:56 | 39.87886 | -75.20499 | 336 ft | 126 kts | 248° |
| 2026-05-06 01:57 | 39.87671 | -75.21580 | 158 ft | 122 kts | 247° |
| 2026-05-06 01:57 | 39.87455 | -75.22644 | 22 ft | 119 kts | 251° |
| 2026-05-06 01:57 | 39.87275 | -75.23534 | 15 ft | 78 kts | 255° |
| 2026-05-06 01:57 | 39.87176 | -75.24048 | 15 ft | 49 kts | 256° |
| 2026-05-06 01:58 | 39.87229 | -75.24133 | 15 ft | 3 kts | 18° |
| 2026-05-06 01:58 | 39.87252 | -75.24159 | 15 ft | 6 kts | 323° |
| 2026-05-06 01:58 | 39.87301 | -75.24200 | 15 ft | 9 kts | 330° |
| 2026-05-06 01:58 | 39.87370 | -75.24232 | 15 ft | 11 kts | 354° |
| 2026-05-06 01:59 | 39.87445 | -75.24241 | 16 ft | 11 kts | 348° |
| 2026-05-06 01:59 | 39.87518 | -75.24265 | 15 ft | 6 kts | 345° |
| 2026-05-06 01:59 | 39.87545 | -75.24307 | 16 ft | 5 kts | 288° |
| 2026-05-06 01:59 | 39.87553 | -75.24340 | 15 ft | 0 kts | 288° |